Tipperary, Ireland
Current Conditions -  °F | °C
As of 12:00 PM on Sunday 21 Dec 2014 (Local Time) from EINN Reporting Station
Broken Clouds Broken Clouds  
Wind Chill: 13°   Ceiling: 5000
Heat Index: 13°   Visibility: 6mi
Dew Point: 10°   Wind: 17mph
Humidity: 82%   Direction: 210°SSW
Pressure: 30.12"   Gusts: NA
Location:  52.49°N, 8.17°W
Report Text: EINN 211200Z 21015KT 9999 SCT017 BKN050 BKN080 13/10 Q1020 NOSIG
Loading
Personal Weather Stations






























Interactive Weather Map New forecast layout! Learn more

10-Day Weather Forecast

Advertisements
Track Severe Weather on mobile